createdAt,value
2022-10-08T00:01:31.218Z,8.60
2022-10-08T00:03:59.458Z,9.70
2022-10-08T00:06:32.376Z,10.00
2022-10-08T00:09:05.085Z,6.00
2022-10-08T00:11:36.626Z,5.40
2022-10-08T00:14:05.487Z,11.10
2022-10-08T00:16:37.653Z,23.30
2022-10-08T00:19:09.139Z,14.30
2022-10-08T00:21:39.758Z,9.10
2022-10-08T00:24:09.497Z,14.90
2022-10-08T00:26:43.589Z,13.80
2022-10-08T00:29:15.399Z,15.40
2022-10-08T00:31:46.077Z,13.00
2022-10-08T00:34:19.900Z,12.80
2022-10-08T00:36:51.705Z,10.60
2022-10-08T00:39:21.887Z,7.20
2022-10-08T00:41:53.549Z,7.30
2022-10-08T00:44:52.583Z,5.20
2022-10-08T00:47:32.615Z,5.40
2022-10-08T00:50:14.442Z,4.40
2022-10-08T00:52:59.297Z,7.60
2022-10-08T00:55:29.249Z,5.30
2022-10-08T00:58:12.689Z,5.80
2022-10-08T01:00:40.806Z,5.70
2022-10-08T01:03:08.879Z,5.80
2022-10-08T01:05:55.386Z,4.20
2022-10-08T01:08:23.401Z,4.40
2022-10-08T01:11:00.219Z,8.40
2022-10-08T01:13:56.717Z,5.00
2022-10-08T01:16:39.486Z,8.50
2022-10-08T01:19:16.933Z,5.40
2022-10-08T01:22:20.478Z,8.90
2022-10-08T01:25:09.728Z,6.20
2022-10-08T01:28:01.053Z,5.80
2022-10-08T01:30:34.083Z,8.10
2022-10-08T01:33:15.237Z,8.40
2022-10-08T01:35:50.742Z,5.20
2022-10-08T01:38:22.124Z,5.20
2022-10-08T01:40:53.226Z,6.50
2022-10-08T01:43:25.163Z,12.00
2022-10-08T01:46:09.424Z,8.70
2022-10-08T01:48:41.352Z,9.10
2022-10-08T01:51:18.961Z,9.60
2022-10-08T01:53:50.049Z,6.90
2022-10-08T01:56:27.571Z,12.90
2022-10-08T01:59:06.445Z,10.10
2022-10-08T02:01:41.243Z,11.10
2022-10-08T02:04:27.834Z,7.60
2022-10-08T02:06:59.465Z,7.50
2022-10-08T02:09:28.940Z,6.20
2022-10-08T02:11:57.764Z,5.80
2022-10-08T02:14:27.782Z,6.40
2022-10-08T02:17:08.797Z,5.80
2022-10-08T02:20:01.963Z,5.90
2022-10-08T02:22:36.591Z,6.00
2022-10-08T02:25:20.077Z,5.70
2022-10-08T02:28:08.065Z,5.70
2022-10-08T02:30:46.984Z,5.50
2022-10-08T02:33:27.095Z,5.60
2022-10-08T02:35:59.015Z,5.90
2022-10-08T02:38:34.471Z,5.10
2022-10-08T02:41:05.157Z,5.10
2022-10-08T02:43:37.768Z,5.70
2022-10-08T02:46:29.249Z,5.20
2022-10-08T02:49:09.286Z,5.30
2022-10-08T02:51:41.590Z,5.50
2022-10-08T02:54:10.702Z,5.00
2022-10-08T02:56:55.920Z,5.30
2022-10-08T02:59:25.336Z,6.90
2022-10-08T03:01:59.801Z,6.70
2022-10-08T03:04:48.148Z,7.80
2022-10-08T03:07:16.969Z,5.90
2022-10-08T03:09:48.819Z,6.90
2022-10-08T03:12:17.138Z,6.90
2022-10-08T03:14:49.319Z,6.10
2022-10-08T03:17:23.836Z,6.10
2022-10-08T03:19:52.068Z,7.10
2022-10-08T03:22:20.042Z,6.80
2022-10-08T03:24:48.522Z,7.30
2022-10-08T03:27:16.442Z,6.10
2022-10-08T03:29:44.277Z,6.70
2022-10-08T03:32:12.153Z,6.60
2022-10-08T03:34:40.156Z,7.30
2022-10-08T03:37:07.943Z,7.20
2022-10-08T03:39:36.167Z,7.50
2022-10-08T03:42:04.638Z,7.40
2022-10-08T03:44:32.470Z,8.10
2022-10-08T03:47:00.378Z,6.60
2022-10-08T03:49:28.493Z,7.80
2022-10-08T03:51:56.355Z,6.50
2022-10-08T03:54:24.570Z,7.10
2022-10-08T03:56:52.568Z,6.90
2022-10-08T03:59:20.850Z,6.80
2022-10-08T04:01:48.913Z,7.20
2022-10-08T04:04:20.648Z,7.50
2022-10-08T04:06:51.232Z,7.00
2022-10-08T04:09:19.315Z,6.90
2022-10-08T04:11:47.101Z,7.40
2022-10-08T04:14:15.061Z,7.50
2022-10-08T04:16:43.208Z,7.40
2022-10-08T04:19:12.280Z,7.20
2022-10-08T04:21:40.237Z,7.60
2022-10-08T04:24:09.546Z,7.70
2022-10-08T04:26:37.406Z,7.60
2022-10-08T04:29:05.785Z,7.60
2022-10-08T04:31:34.143Z,7.40
2022-10-08T04:34:02.093Z,7.80
2022-10-08T04:36:30.469Z,6.80
2022-10-08T04:38:58.661Z,8.40
2022-10-08T04:41:27.197Z,7.60
2022-10-08T04:44:00.336Z,7.90
2022-10-08T04:46:28.511Z,7.20
2022-10-08T04:48:57.160Z,7.60
2022-10-08T04:51:26.610Z,8.40
2022-10-08T04:53:56.083Z,7.60
2022-10-08T04:56:27.109Z,8.10
2022-10-08T04:58:56.190Z,7.20
2022-10-08T05:01:26.103Z,7.00
2022-10-08T05:03:55.605Z,7.20
2022-10-08T05:06:26.108Z,6.90
2022-10-08T05:08:55.165Z,7.40
2022-10-08T05:11:27.212Z,6.70
2022-10-08T05:13:57.227Z,6.50
2022-10-08T05:16:26.308Z,7.10
2022-10-08T05:18:54.987Z,7.20
2022-10-08T05:21:26.701Z,7.20
2022-10-08T05:24:07.039Z,7.40
2022-10-08T05:26:57.564Z,7.00
2022-10-08T05:29:29.689Z,7.30
2022-10-08T05:31:57.995Z,7.40
2022-10-08T05:34:26.259Z,7.00
2022-10-08T05:36:54.063Z,6.70
2022-10-08T05:39:22.229Z,7.90
2022-10-08T05:41:49.997Z,8.00
2022-10-08T05:44:18.246Z,7.50
2022-10-08T05:46:46.388Z,7.50
2022-10-08T05:49:20.672Z,8.20
2022-10-08T05:51:49.572Z,7.70
2022-10-08T05:54:18.471Z,7.20
2022-10-08T05:56:46.756Z,7.80
2022-10-08T05:59:24.096Z,7.50
2022-10-08T06:01:52.401Z,7.40
2022-10-08T06:04:20.785Z,7.80
2022-10-08T06:06:48.682Z,7.80
2022-10-08T06:09:19.429Z,7.30
2022-10-08T06:11:49.089Z,7.80
2022-10-08T06:14:20.662Z,7.30
2022-10-08T06:16:48.874Z,7.80
2022-10-08T06:19:17.481Z,7.90
2022-10-08T06:21:45.385Z,7.90
2022-10-08T06:24:14.383Z,7.50
2022-10-08T06:26:47.371Z,7.50
2022-10-08T06:29:17.472Z,8.50
2022-10-08T06:31:46.472Z,7.60
2022-10-08T06:34:15.202Z,8.10
2022-10-08T06:36:43.256Z,7.30
2022-10-08T06:39:14.563Z,8.40
2022-10-08T06:41:42.883Z,8.00
2022-10-08T06:44:13.880Z,7.60
2022-10-08T06:46:42.798Z,6.90
2022-10-08T06:49:13.003Z,7.60
2022-10-08T06:51:41.291Z,7.10
2022-10-08T06:54:09.220Z,7.50
2022-10-08T06:56:38.358Z,6.60
2022-10-08T06:59:08.053Z,8.00
2022-10-08T07:01:36.338Z,7.20
2022-10-08T07:04:05.493Z,7.00
2022-10-08T07:06:33.898Z,7.40
2022-10-08T07:09:03.447Z,7.00
2022-10-08T07:11:33.570Z,7.10
2022-10-08T07:14:01.928Z,7.20
2022-10-08T07:16:30.528Z,7.30
2022-10-08T07:18:59.157Z,8.10
2022-10-08T07:21:28.564Z,7.40
2022-10-08T07:23:58.639Z,6.10
2022-10-08T07:26:29.248Z,6.20
2022-10-08T07:29:00.945Z,6.90
2022-10-08T07:31:32.122Z,6.30
2022-10-08T07:34:01.877Z,6.50
2022-10-08T07:36:31.105Z,6.60
2022-10-08T07:39:22.194Z,7.30
2022-10-08T07:41:50.762Z,6.00
2022-10-08T07:44:18.594Z,6.80
2022-10-08T07:46:48.960Z,7.00
2022-10-08T07:49:18.772Z,7.60
2022-10-08T07:51:48.224Z,6.90
2022-10-08T07:54:18.646Z,7.00
2022-10-08T07:56:47.261Z,7.80
2022-10-08T07:59:16.277Z,7.60
2022-10-08T08:01:45.020Z,7.30
2022-10-08T08:04:13.286Z,6.60
2022-10-08T08:06:48.503Z,6.80
2022-10-08T08:09:18.308Z,7.30
2022-10-08T08:11:49.165Z,6.40
2022-10-08T08:14:17.726Z,9.40
2022-10-08T08:16:45.768Z,7.40
2022-10-08T08:19:13.816Z,7.00
2022-10-08T08:21:43.064Z,7.10
2022-10-08T08:24:13.235Z,7.00
2022-10-08T08:26:46.769Z,6.00
2022-10-08T08:29:17.786Z,6.60
2022-10-08T08:31:48.719Z,7.20
2022-10-08T08:34:20.132Z,5.90
2022-10-08T08:36:50.283Z,6.00
2022-10-08T08:39:28.797Z,6.30
2022-10-08T08:42:03.290Z,6.70
2022-10-08T08:44:36.616Z,6.70
2022-10-08T08:47:14.227Z,6.20
2022-10-08T08:49:44.151Z,7.40
2022-10-08T08:52:16.635Z,6.40
2022-10-08T08:54:50.358Z,6.50
2022-10-08T08:57:35.251Z,6.70
2022-10-08T09:00:19.367Z,6.80
2022-10-08T09:02:54.944Z,6.80
2022-10-08T09:05:26.654Z,6.60
2022-10-08T09:07:59.812Z,6.90
2022-10-08T09:10:51.129Z,7.10
2022-10-08T09:13:24.403Z,6.20
2022-10-08T09:15:55.413Z,6.90
2022-10-08T09:18:23.825Z,8.30
2022-10-08T09:20:51.765Z,7.60
2022-10-08T09:23:23.981Z,7.40
2022-10-08T09:26:10.562Z,7.70
2022-10-08T09:28:40.754Z,6.80
2022-10-08T09:31:28.008Z,7.30
2022-10-08T09:34:01.254Z,7.60
2022-10-08T09:36:36.306Z,7.20
2022-10-08T09:39:13.427Z,5.80
2022-10-08T09:41:41.782Z,6.50
2022-10-08T09:44:22.685Z,7.60
2022-10-08T09:47:05.670Z,6.70
2022-10-08T09:49:39.578Z,6.70
2022-10-08T09:52:21.517Z,6.10
2022-10-08T09:55:19.346Z,6.10
2022-10-08T09:57:51.573Z,5.70
2022-10-08T10:00:35.446Z,5.50
2022-10-08T10:03:06.852Z,7.10
2022-10-08T10:05:37.011Z,6.70
2022-10-08T10:08:05.732Z,7.70
2022-10-08T10:10:42.072Z,6.40
2022-10-08T10:13:20.348Z,6.80
2022-10-08T10:15:59.261Z,6.00
2022-10-08T10:18:49.101Z,6.00
2022-10-08T10:21:36.261Z,6.60
2022-10-08T10:24:18.893Z,6.00
2022-10-08T10:26:47.966Z,6.70
2022-10-08T10:29:22.342Z,7.30
2022-10-08T10:32:17.777Z,6.10
2022-10-08T10:34:59.046Z,7.70
2022-10-08T10:37:37.682Z,7.00
2022-10-08T10:40:17.988Z,6.70
2022-10-08T10:43:39.592Z,6.70
2022-10-08T10:46:34.541Z,7.00
2022-10-08T10:49:34.168Z,7.50
2022-10-08T10:52:12.988Z,7.00
2022-10-08T10:55:15.568Z,7.20
2022-10-08T10:58:27.021Z,7.70
2022-10-08T11:01:13.818Z,7.90
2022-10-08T11:04:09.552Z,7.40
2022-10-08T11:06:58.701Z,6.90
2022-10-08T11:09:33.358Z,7.70
2022-10-08T11:12:23.685Z,7.80
2022-10-08T11:15:10.153Z,7.60
2022-10-08T11:18:18.431Z,8.30
2022-10-08T11:21:12.899Z,7.70
2022-10-08T11:23:56.979Z,7.30
2022-10-08T11:26:57.806Z,7.40
2022-10-08T11:29:41.017Z,7.90
2022-10-08T11:32:13.983Z,7.90
2022-10-08T11:35:30.471Z,8.10
2022-10-08T11:38:11.848Z,7.90
2022-10-08T11:41:09.046Z,7.60
2022-10-08T11:43:39.772Z,7.50
2022-10-08T11:46:34.589Z,7.40
2022-10-08T11:49:02.597Z,8.00
2022-10-08T11:51:33.217Z,7.40
2022-10-08T11:54:15.372Z,7.60
2022-10-08T11:56:50.304Z,8.20
2022-10-08T11:59:34.551Z,8.90
2022-10-08T12:02:07.428Z,8.00
2022-10-08T12:04:39.128Z,7.40
2022-10-08T12:07:32.886Z,8.20
2022-10-08T12:10:09.399Z,7.70
2022-10-08T12:12:50.505Z,8.30
2022-10-08T12:15:25.891Z,7.50
2022-10-08T12:18:26.037Z,7.20
2022-10-08T12:21:16.516Z,6.90
2022-10-08T12:23:45.344Z,8.10
2022-10-08T12:26:15.592Z,7.90
2022-10-08T12:28:46.738Z,7.30
2022-10-08T12:31:23.993Z,7.10
2022-10-08T12:34:00.918Z,7.10
2022-10-08T12:36:37.785Z,7.00
2022-10-08T12:39:24.785Z,7.70
2022-10-08T12:42:22.501Z,7.40
2022-10-08T12:45:23.354Z,6.40
2022-10-08T12:48:04.008Z,6.80
2022-10-08T12:50:50.899Z,6.70
2022-10-08T12:53:19.096Z,6.70
2022-10-08T12:55:58.095Z,6.80
2022-10-08T12:58:30.424Z,7.80
2022-10-08T13:01:04.509Z,6.90
2022-10-08T13:03:33.035Z,8.80
2022-10-08T13:06:16.630Z,7.60
2022-10-08T13:08:45.116Z,6.50
2022-10-08T13:11:15.191Z,6.70
2022-10-08T13:13:49.754Z,6.70
2022-10-08T13:16:19.702Z,7.00
2022-10-08T13:18:57.710Z,7.40
2022-10-08T13:21:31.930Z,6.40
2022-10-08T13:24:02.296Z,5.60
2022-10-08T13:26:45.518Z,5.80
2022-10-08T13:29:34.282Z,7.40
2022-10-08T13:32:11.735Z,6.30
2022-10-08T13:34:39.741Z,7.30
2022-10-08T13:37:13.101Z,7.20
2022-10-08T13:46:35.007Z,7.10
2022-10-08T13:49:03.623Z,7.40
2022-10-08T13:51:31.605Z,7.00
2022-10-08T13:54:00.429Z,5.90
2022-10-08T13:56:28.935Z,6.80
2022-10-08T13:58:57.246Z,6.20
2022-10-08T14:01:25.593Z,7.20
2022-10-08T14:03:54.379Z,8.40
2022-10-08T14:06:23.108Z,6.50
2022-10-08T14:08:51.617Z,5.60
2022-10-08T14:11:20.430Z,6.50
2022-10-08T14:13:48.669Z,6.30
2022-10-08T14:16:17.367Z,9.80
2022-10-08T14:18:46.241Z,5.60
2022-10-08T14:21:17.844Z,4.80
2022-10-08T14:23:46.241Z,6.80
2022-10-08T14:26:15.114Z,5.40
2022-10-08T14:28:43.626Z,6.60
2022-10-08T14:31:13.830Z,6.80
2022-10-08T14:33:41.974Z,5.30
2022-10-08T14:36:19.231Z,5.60
2022-10-08T14:38:48.501Z,5.80
2022-10-08T14:41:16.861Z,5.40
2022-10-08T14:43:45.136Z,4.40
2022-10-08T14:46:13.415Z,5.50
2022-10-08T14:48:41.300Z,5.30
2022-10-08T14:51:09.394Z,5.10
2022-10-08T14:53:37.404Z,5.10
2022-10-08T14:56:12.498Z,5.10
2022-10-08T14:58:41.615Z,4.80
2022-10-08T15:01:10.327Z,4.50
2022-10-08T15:03:38.463Z,7.00
2022-10-08T15:06:06.897Z,5.70
2022-10-08T15:08:34.858Z,5.90
2022-10-08T15:11:04.450Z,6.20
2022-10-08T15:13:33.210Z,7.30
2022-10-08T15:16:01.314Z,5.80
2022-10-08T15:18:31.716Z,30.70
2022-10-08T15:21:00.653Z,28.10
2022-10-08T15:23:28.842Z,7.80
2022-10-08T15:26:07.268Z,7.30
2022-10-08T15:28:37.189Z,6.10
2022-10-08T15:31:09.032Z,6.30
2022-10-08T15:33:39.098Z,6.00
2022-10-08T15:36:22.545Z,5.50
2022-10-08T15:38:59.599Z,11.10
2022-10-08T15:41:29.377Z,15.90
2022-10-08T15:44:09.045Z,9.20
2022-10-08T15:46:38.005Z,8.20
2022-10-08T15:49:06.466Z,7.90
2022-10-08T15:51:34.695Z,7.80
2022-10-08T15:54:03.754Z,8.90
2022-10-08T15:56:32.178Z,9.30
2022-10-08T15:59:01.459Z,9.50
2022-10-08T16:01:30.577Z,9.70
2022-10-08T16:04:00.242Z,8.40
2022-10-08T16:06:38.912Z,8.30
2022-10-08T16:09:07.392Z,9.70
2022-10-08T16:11:35.537Z,10.80
2022-10-08T16:14:22.154Z,14.50
2022-10-08T16:16:51.304Z,18.20
2022-10-08T16:19:22.321Z,16.60
2022-10-08T16:21:52.463Z,9.90
2022-10-08T16:24:20.880Z,8.10
2022-10-08T16:26:49.652Z,9.60
2022-10-08T16:29:19.223Z,13.20
2022-10-08T16:31:47.742Z,12.70
2022-10-08T16:34:19.633Z,12.50
2022-10-08T16:36:48.466Z,17.00
2022-10-08T16:39:19.420Z,18.40
2022-10-08T16:41:48.398Z,17.40
2022-10-08T16:44:18.878Z,16.90
2022-10-08T16:46:50.735Z,14.80
2022-10-08T16:49:25.442Z,13.70
2022-10-08T16:51:58.957Z,13.40
2022-10-08T16:54:28.481Z,13.10
2022-10-08T16:56:57.851Z,13.00
2022-10-08T16:59:27.688Z,16.80
2022-10-08T17:01:58.074Z,15.90
2022-10-08T17:04:27.995Z,16.20
2022-10-08T17:06:56.063Z,18.10
2022-10-08T17:09:24.337Z,19.60
2022-10-08T17:11:52.955Z,22.30
2022-10-08T17:14:20.829Z,19.80
2022-10-08T17:16:50.491Z,19.40
2022-10-08T17:19:19.492Z,17.30
2022-10-08T17:21:47.436Z,15.60
2022-10-08T17:24:15.660Z,17.80
2022-10-08T17:26:43.807Z,17.50
2022-10-08T17:29:13.139Z,16.40
2022-10-08T17:31:42.122Z,16.10
2022-10-08T17:34:11.646Z,16.60
2022-10-08T17:36:41.722Z,17.90
2022-10-08T17:39:14.377Z,16.20
2022-10-08T17:41:43.705Z,17.10
2022-10-08T17:44:12.120Z,16.40
2022-10-08T17:46:43.873Z,13.90
2022-10-08T17:49:12.858Z,12.70
2022-10-08T17:51:40.801Z,12.30
2022-10-08T17:54:13.198Z,11.10
2022-10-08T17:56:41.356Z,11.40
2022-10-08T17:59:12.983Z,11.20
2022-10-08T18:01:44.812Z,11.20
2022-10-08T18:04:16.378Z,11.30
2022-10-08T18:06:46.675Z,12.10
2022-10-08T18:09:20.411Z,11.30
2022-10-08T18:11:52.240Z,11.70
2022-10-08T18:14:22.517Z,10.70
2022-10-08T18:16:51.092Z,10.10
2022-10-08T18:19:19.468Z,10.20
2022-10-08T18:21:50.740Z,9.10
2022-10-08T18:24:18.641Z,9.80
2022-10-08T18:26:46.926Z,10.20
2022-10-08T18:29:16.198Z,10.20
2022-10-08T18:31:46.840Z,10.70
2022-10-08T18:34:17.710Z,8.60
2022-10-08T18:36:46.929Z,9.90
2022-10-08T18:39:26.153Z,8.00
2022-10-08T18:41:56.831Z,8.90
2022-10-08T18:44:26.398Z,8.80
2022-10-08T18:46:54.372Z,8.80
2022-10-08T18:49:30.982Z,8.10
2022-10-08T18:52:01.361Z,8.40
2022-10-08T18:54:30.840Z,9.00
2022-10-08T18:57:00.604Z,8.90
2022-10-08T18:59:29.399Z,8.30
2022-10-08T19:01:59.492Z,8.40
2022-10-08T19:04:28.020Z,8.60
2022-10-08T19:06:56.132Z,8.20
2022-10-08T19:09:24.744Z,8.50
2022-10-08T19:11:54.747Z,8.40
2022-10-08T19:14:23.963Z,7.60
2022-10-08T19:16:52.508Z,8.30
2022-10-08T19:19:24.320Z,7.80
2022-10-08T19:21:54.411Z,9.10
2022-10-08T19:24:24.764Z,9.00
2022-10-08T19:26:54.124Z,9.20
2022-10-08T19:29:29.499Z,8.70
2022-10-08T19:31:58.202Z,9.40
2022-10-08T19:34:27.131Z,9.10
2022-10-08T19:36:55.672Z,9.50
2022-10-08T19:39:26.506Z,8.70
2022-10-08T19:41:55.011Z,10.30
2022-10-08T19:44:22.964Z,11.00
2022-10-08T19:46:52.227Z,12.00
2022-10-08T19:49:21.686Z,12.20
2022-10-08T19:51:49.543Z,11.30
2022-10-08T19:54:18.460Z,10.60
2022-10-08T19:56:46.612Z,10.80
2022-10-08T19:59:15.430Z,10.10
2022-10-08T20:01:44.963Z,10.00
2022-10-08T20:04:14.425Z,9.00
2022-10-08T20:06:43.895Z,9.60
2022-10-08T20:09:14.298Z,9.80
2022-10-08T20:11:44.949Z,8.80
2022-10-08T20:14:14.714Z,9.50
2022-10-08T20:16:43.559Z,8.40
2022-10-08T20:19:20.793Z,8.10
2022-10-08T20:21:51.348Z,8.40
2022-10-08T20:24:19.541Z,8.30
2022-10-08T20:26:49.205Z,8.60
2022-10-08T20:29:20.709Z,8.10
2022-10-08T20:31:55.135Z,8.70
2022-10-08T20:34:31.601Z,8.50
2022-10-08T20:37:02.389Z,9.20
2022-10-08T20:39:30.527Z,8.90
2022-10-08T20:41:59.677Z,8.30
2022-10-08T20:44:27.838Z,7.20
2022-10-08T20:46:56.538Z,7.60
2022-10-08T20:49:25.070Z,7.20
2022-10-08T20:51:53.140Z,9.10
2022-10-08T20:54:21.206Z,6.90
2022-10-08T20:56:49.182Z,7.00
2022-10-08T20:59:18.501Z,6.20
2022-10-08T21:01:47.001Z,6.60
2022-10-08T21:04:15.147Z,6.00
2022-10-08T21:06:45.807Z,6.30
2022-10-08T21:09:15.631Z,5.80
2022-10-08T21:11:46.470Z,6.10
2022-10-08T21:14:21.703Z,5.30
2022-10-08T21:16:50.187Z,5.30
2022-10-08T21:19:22.207Z,5.20
2022-10-08T21:21:51.832Z,5.10
2022-10-08T21:24:20.301Z,5.30
2022-10-08T21:26:48.289Z,5.40
2022-10-08T21:29:16.267Z,5.20
2022-10-08T21:31:44.433Z,6.10
2022-10-08T21:34:13.133Z,5.60
2022-10-08T21:36:41.934Z,5.60
2022-10-08T21:39:15.690Z,5.80
2022-10-08T21:41:44.325Z,6.00
2022-10-08T21:44:13.233Z,6.00
2022-10-08T21:46:42.374Z,6.00
2022-10-08T21:49:17.156Z,6.30
2022-10-08T21:51:45.286Z,6.30
2022-10-08T21:54:14.236Z,6.40
2022-10-08T21:56:43.618Z,5.80
2022-10-08T21:59:14.370Z,5.60
2022-10-08T22:01:50.539Z,5.10
2022-10-08T22:04:22.569Z,5.40
2022-10-08T22:06:53.937Z,4.70
2022-10-08T22:09:28.030Z,4.70
2022-10-08T22:11:58.271Z,5.00
2022-10-08T22:14:27.264Z,4.00
2022-10-08T22:16:55.598Z,3.00
2022-10-08T22:19:24.078Z,2.40
2022-10-08T22:21:52.489Z,2.10
2022-10-08T22:24:20.455Z,2.20
2022-10-08T22:26:48.500Z,2.30
2022-10-08T22:29:17.337Z,1.80
2022-10-08T22:31:46.108Z,1.60
2022-10-08T22:34:14.416Z,1.30
2022-10-08T22:36:44.505Z,1.50
2022-10-08T22:39:12.923Z,1.50
2022-10-08T22:41:41.290Z,1.30
2022-10-08T22:44:09.220Z,1.20
2022-10-08T22:46:39.528Z,1.30
2022-10-08T22:49:11.213Z,1.00
2022-10-08T22:51:40.274Z,1.30
2022-10-08T22:54:10.141Z,0.90
2022-10-08T22:56:38.473Z,1.40
2022-10-08T22:59:07.070Z,1.40
2022-10-08T23:01:35.086Z,1.60
2022-10-08T23:04:02.972Z,1.50
2022-10-08T23:06:33.905Z,1.60
2022-10-08T23:09:05.466Z,2.20
2022-10-08T23:11:36.349Z,1.60
2022-10-08T23:14:06.534Z,2.20
2022-10-08T23:16:34.850Z,2.10
2022-10-08T23:19:06.939Z,1.90
2022-10-08T23:21:35.893Z,1.80
2022-10-08T23:24:05.354Z,1.50
2022-10-08T23:26:33.814Z,1.50
2022-10-08T23:29:03.409Z,1.60
2022-10-08T23:31:34.072Z,1.10
2022-10-08T23:34:02.787Z,1.50
2022-10-08T23:36:35.016Z,1.50
2022-10-08T23:39:04.246Z,1.30
2022-10-08T23:41:32.392Z,1.40
2022-10-08T23:44:00.873Z,0.90
2022-10-08T23:46:30.516Z,1.20
2022-10-08T23:48:59.826Z,1.00
2022-10-08T23:51:29.766Z,0.70
2022-10-08T23:53:58.109Z,0.80
2022-10-08T23:56:25.976Z,1.00
2022-10-08T23:58:54.294Z,1.10
